Portada
METAR-TAF:

METAR-TAF

Aeroports :

Burlington, Wisconsin, Estats Units d'Amèrica

Burlington Municipal Airport

latitud: 42-41-26N, longitud: 088-18-17W, altitud: 237 m

Observació

L'informe es va fer fa 15 hores i 48 minuts, a les 15:15 UTC
Vent calma
Temperatura 5°C
Humitat 100%
Pressió 1011 hPa
Visibilitat: 3.2 km
Núvols disperses a una alçada de 100 ft
Núvols disperses a una alçada de 1700 ft
Cel ennuvolat a una alçada de 4200 ft
desconegut

METAR: KBUU 201515Z AUTO 00000KT 2SM UP SCT001 SCT017 BKN042 05/05 A2984 RMK AO2 VIS 1V4 P0001 T00490045

Hora: 01:03 (07:03 UTC)


TAF: manca

Observacions i pronòstics meteorològics de més de 4000 aeroports (METAR i TAF).

Les estacions disponibles són els punts grocs i vermells al mapa.

Posi el ratolí al punt desitjat per veure el nom de l'estació.

Feu clic per veure les observacions i els pronòstics meteorològics.

Per canviar el mapa: feu clic els botons verds amb una creu de color negre per apropar; al botó verd amb un guió per allunyar la imatge; o en les fletxes verdes per a mapes adjacents.


METAR-TAF: